createdAt,value
2018-04-24T00:00:35.594Z,85.28
2018-04-24T00:01:35.780Z,85.37
2018-04-24T00:02:35.968Z,85.47
2018-04-24T00:03:36.155Z,85.28
2018-04-24T00:04:36.342Z,85.47
2018-04-24T00:05:36.530Z,86.04
2018-04-24T00:06:36.717Z,86.22
2018-04-24T00:07:36.911Z,86.04
2018-04-24T00:08:37.095Z,86.22
2018-04-24T00:09:37.278Z,85.75
2018-04-24T00:10:37.466Z,86.04
2018-04-24T00:11:37.650Z,86.80
2018-04-24T00:12:37.838Z,86.61
2018-04-24T00:13:38.026Z,86.70
2018-04-24T00:14:38.211Z,86.80
2018-04-24T00:15:38.396Z,86.61
2018-04-24T00:16:38.584Z,86.80
2018-04-24T00:17:38.774Z,86.61
2018-04-24T00:18:38.955Z,86.70
2018-04-24T00:19:39.142Z,86.22
2018-04-24T00:20:39.328Z,85.85
2018-04-24T00:21:39.514Z,86.04
2018-04-24T00:22:39.702Z,86.13
2018-04-24T00:23:39.890Z,86.13
2018-04-24T00:24:40.078Z,86.70
2018-04-24T00:25:40.262Z,86.42
2018-04-24T00:26:40.450Z,86.51
2018-04-24T00:27:40.635Z,86.13
2018-04-24T00:28:40.821Z,86.32
2018-04-24T00:29:41.018Z,86.13
2018-04-24T00:30:41.194Z,85.66
2018-04-24T00:31:41.381Z,85.66
2018-04-24T00:32:41.569Z,85.75
2018-04-24T00:33:41.755Z,84.99
2018-04-24T00:34:41.942Z,85.28
2018-04-24T00:35:42.129Z,84.89
2018-04-24T00:36:42.321Z,84.80
2018-04-24T00:37:42.504Z,84.61
2018-04-24T00:38:42.690Z,84.52
2018-04-24T00:39:42.876Z,83.56
2018-04-24T00:40:43.063Z,84.04
2018-04-24T00:41:43.250Z,84.52
2018-04-24T00:42:43.441Z,84.70
2018-04-24T00:43:43.625Z,84.89
2018-04-24T00:44:43.812Z,85.66
2018-04-24T00:45:44.028Z,85.85
2018-04-24T00:46:44.187Z,86.90
2018-04-24T00:47:44.372Z,86.32
2018-04-24T00:48:44.559Z,86.42
2018-04-24T00:49:44.745Z,87.37
2018-04-24T00:50:44.935Z,87.18
2018-04-24T00:51:45.119Z,86.76
2018-04-24T00:52:45.304Z,86.76
2018-04-24T00:53:45.493Z,86.09
2018-04-24T00:54:45.680Z,85.80
2018-04-24T00:55:45.867Z,86.09
2018-04-24T00:56:46.053Z,86.66
2018-04-24T00:57:46.240Z,86.90
2018-04-24T00:58:46.429Z,87.37
2018-04-24T00:59:46.613Z,87.56
2018-04-24T01:00:46.799Z,86.80
2018-04-24T01:01:46.985Z,86.70
2018-04-24T01:02:47.173Z,86.80
2018-04-24T01:03:47.358Z,85.75
2018-04-24T01:04:47.544Z,85.75
2018-04-24T01:05:47.731Z,85.75
2018-04-24T01:06:47.992Z,85.47
2018-04-24T01:07:48.106Z,85.37
2018-04-24T01:08:48.293Z,85.66
2018-04-24T01:09:48.479Z,85.37
2018-04-24T01:10:48.666Z,85.28
2018-04-24T01:11:48.851Z,86.13
2018-04-24T01:12:49.038Z,86.04
2018-04-24T01:13:49.226Z,86.80
2018-04-24T01:14:49.411Z,87.71
2018-04-24T01:15:49.601Z,88.28
2018-04-24T01:16:49.786Z,88.18
2018-04-24T01:17:49.975Z,88.09
2018-04-24T01:18:50.161Z,88.46
2018-04-24T01:19:50.346Z,88.18
2018-04-24T01:20:50.532Z,88.75
2018-04-24T01:21:50.718Z,87.80
2018-04-24T01:22:50.906Z,88.28
2018-04-24T01:23:51.092Z,88.37
2018-04-24T01:24:51.279Z,87.80
2018-04-24T01:25:51.464Z,87.23
2018-04-24T01:26:51.652Z,87.80
2018-04-24T01:27:51.838Z,87.52
2018-04-24T01:28:52.027Z,88.46
2018-04-24T01:29:52.211Z,88.85
2018-04-24T01:30:52.401Z,89.42
2018-04-24T01:31:52.588Z,89.32
2018-04-24T01:32:52.775Z,90.23
2018-04-24T01:33:52.960Z,90.99
2018-04-24T01:34:53.148Z,90.80
2018-04-24T01:35:53.334Z,90.89
2018-04-24T01:36:53.523Z,91.32
2018-04-24T01:37:53.707Z,91.56
2018-04-24T01:38:53.896Z,91.28
2018-04-24T01:39:54.079Z,91.28
2018-04-24T01:40:54.268Z,91.56
2018-04-24T01:41:54.457Z,91.37
2018-04-24T01:42:54.639Z,91.18
2018-04-24T01:43:54.829Z,91.61
2018-04-24T01:44:55.015Z,91.03
2018-04-24T01:45:55.198Z,90.70
2018-04-24T01:46:55.385Z,90.56
2018-04-24T01:47:55.570Z,90.66
2018-04-24T01:48:55.757Z,90.18
2018-04-24T01:49:55.944Z,90.47
2018-04-24T01:50:56.130Z,89.80
2018-04-24T01:51:56.317Z,90.56
2018-04-24T01:52:56.503Z,89.89
2018-04-24T01:53:56.689Z,89.61
2018-04-24T01:54:56.876Z,89.37
2018-04-24T01:55:57.064Z,89.42
2018-04-24T01:56:57.249Z,88.51
2018-04-24T01:57:57.435Z,88.42
2018-04-24T01:58:57.623Z,88.13
2018-04-24T01:59:57.808Z,88.23
2018-04-24T02:00:57.999Z,87.85
2018-04-24T02:01:58.181Z,87.37
2018-04-24T02:02:58.366Z,87.37
2018-04-24T02:03:58.551Z,87.27
2018-04-24T02:04:58.736Z,87.46
2018-04-24T02:05:58.922Z,87.27
2018-04-24T02:06:59.109Z,87.37
2018-04-24T02:07:59.297Z,87.37
2018-04-24T02:08:59.482Z,87.18
2018-04-24T02:09:59.669Z,87.08
2018-04-24T02:10:59.853Z,87.75
2018-04-24T02:12:00.040Z,88.13
2018-04-24T02:13:00.226Z,87.65
2018-04-24T02:14:00.411Z,87.85
2018-04-24T02:15:00.600Z,87.56
2018-04-24T02:16:00.783Z,87.65
2018-04-24T02:17:00.969Z,87.27
2018-04-24T02:18:01.155Z,87.18
2018-04-24T02:19:01.342Z,86.99
2018-04-24T02:20:01.527Z,87.42
2018-04-24T02:21:01.714Z,88.28
2018-04-24T02:22:01.900Z,88.94
2018-04-24T02:23:02.086Z,89.14
2018-04-24T02:24:02.273Z,89.51
2018-04-24T02:25:02.487Z,89.99
2018-04-24T02:26:02.645Z,89.66
2018-04-24T02:27:02.831Z,90.18
2018-04-24T02:28:03.021Z,90.42
2018-04-24T02:29:03.206Z,90.23
2018-04-24T02:30:03.392Z,90.23
2018-04-24T02:31:03.576Z,90.89
2018-04-24T02:32:03.765Z,90.99
2018-04-24T02:33:03.950Z,91.28
2018-04-24T02:34:04.138Z,91.47
2018-04-24T02:35:04.323Z,91.37
2018-04-24T02:36:04.512Z,91.56
2018-04-24T02:37:04.695Z,91.56
2018-04-24T02:38:04.883Z,92.32
2018-04-24T02:39:05.263Z,92.32
2018-04-24T02:40:05.293Z,92.13
2018-04-24T02:41:05.406Z,92.41
2018-04-24T02:42:05.593Z,92.51
2018-04-24T02:43:05.777Z,92.89
2018-04-24T02:44:05.965Z,93.08
2018-04-24T02:45:06.151Z,93.46
2018-04-24T02:46:06.337Z,92.89
2018-04-24T02:47:06.523Z,92.80
2018-04-24T02:48:06.710Z,92.89
2018-04-24T02:49:06.895Z,92.61
2018-04-24T02:50:07.082Z,92.61
2018-04-24T02:51:07.268Z,93.65
2018-04-24T02:52:07.540Z,93.18
2018-04-24T02:53:07.638Z,92.03
2018-04-24T02:54:07.823Z,92.41
2018-04-24T02:55:08.009Z,91.47
2018-04-24T02:56:08.194Z,92.13
2018-04-24T02:57:08.380Z,92.61
2018-04-24T02:58:08.565Z,92.22
2018-04-24T02:59:08.750Z,92.51
2018-04-24T03:00:08.937Z,92.03
2018-04-24T03:01:09.127Z,92.13
2018-04-24T03:02:09.310Z,92.18
2018-04-24T03:03:09.497Z,92.70
2018-04-24T03:04:09.686Z,93.08
2018-04-24T03:05:09.868Z,93.27
2018-04-24T03:06:10.054Z,93.41
2018-04-24T03:07:10.239Z,93.55
2018-04-24T03:08:10.425Z,93.65
2018-04-24T03:09:10.612Z,93.84
2018-04-24T03:10:10.798Z,93.79
2018-04-24T03:11:10.984Z,93.84
2018-04-24T03:12:11.172Z,94.03
2018-04-24T03:13:11.359Z,94.32
2018-04-24T03:14:11.540Z,94.03
2018-04-24T03:15:11.725Z,94.13
2018-04-24T03:16:11.913Z,93.65
2018-04-24T03:17:12.098Z,93.65
2018-04-24T03:18:12.283Z,93.18
2018-04-24T03:19:12.468Z,93.18
2018-04-24T03:20:12.653Z,92.94
2018-04-24T03:21:12.837Z,92.36
2018-04-24T03:22:13.024Z,92.32
2018-04-24T03:23:13.210Z,92.36
2018-04-24T03:24:13.395Z,91.94
2018-04-24T03:25:13.583Z,92.56
2018-04-24T03:26:13.766Z,92.36
2018-04-24T03:27:13.953Z,92.13
2018-04-24T03:28:14.140Z,92.41
2018-04-24T03:29:14.326Z,92.51
2018-04-24T03:30:14.511Z,92.18
2018-04-24T03:31:14.696Z,92.22
2018-04-24T03:32:14.882Z,91.94
2018-04-24T03:33:15.079Z,92.51
2018-04-24T03:34:15.254Z,92.18
2018-04-24T03:35:15.439Z,91.94
2018-04-24T03:36:15.634Z,92.32
2018-04-24T03:37:15.811Z,92.70
2018-04-24T03:38:15.998Z,92.56
2018-04-24T03:39:16.184Z,91.99
2018-04-24T03:40:16.371Z,92.08
2018-04-24T03:41:16.559Z,92.13
2018-04-24T03:42:16.744Z,91.99
2018-04-24T03:43:16.931Z,92.18
2018-04-24T03:44:17.116Z,92.46
2018-04-24T03:45:17.302Z,92.65
2018-04-24T03:46:17.491Z,92.18
2018-04-24T03:47:17.676Z,92.65
2018-04-24T03:48:17.863Z,92.65
2018-04-24T03:49:18.052Z,92.36
2018-04-24T03:50:18.234Z,92.18
2018-04-24T03:51:18.420Z,92.46
2018-04-24T03:52:18.607Z,92.08
2018-04-24T03:53:18.791Z,91.80
2018-04-24T03:54:18.977Z,91.42
2018-04-24T03:55:19.165Z,91.42
2018-04-24T03:56:19.348Z,91.89
2018-04-24T03:57:19.596Z,91.89
2018-04-24T03:58:19.719Z,91.42
2018-04-24T03:59:19.908Z,91.22
2018-04-24T04:00:20.095Z,91.22
2018-04-24T04:01:20.282Z,91.22
2018-04-24T04:02:20.467Z,90.66
2018-04-24T04:03:20.654Z,91.42
2018-04-24T04:04:20.839Z,91.42
2018-04-24T04:05:21.024Z,91.13
2018-04-24T04:06:21.210Z,90.75
2018-04-24T04:07:21.397Z,90.56
2018-04-24T04:08:21.581Z,90.56
2018-04-24T04:09:21.767Z,90.56
2018-04-24T04:10:21.952Z,90.84
2018-04-24T04:11:22.193Z,90.37
2018-04-24T04:12:22.318Z,90.84
2018-04-24T04:13:22.504Z,90.28
2018-04-24T04:14:22.691Z,90.56
2018-04-24T04:15:22.873Z,90.56
2018-04-24T04:16:23.058Z,90.47
2018-04-24T04:17:23.244Z,90.47
2018-04-24T04:18:23.438Z,90.42
2018-04-24T04:19:23.616Z,89.84
2018-04-24T04:20:23.803Z,89.56
2018-04-24T04:21:23.994Z,89.65
2018-04-24T04:22:24.200Z,89.27
2018-04-24T04:23:24.361Z,89.65
2018-04-24T04:24:24.546Z,89.56
2018-04-24T04:25:24.732Z,89.75
2018-04-24T04:26:24.918Z,89.27
2018-04-24T04:27:25.104Z,87.85
2018-04-24T04:28:25.289Z,88.04
2018-04-24T04:29:25.478Z,87.79
2018-04-24T04:30:25.664Z,87.23
2018-04-24T04:31:25.850Z,86.84
2018-04-24T04:32:26.035Z,86.84
2018-04-24T04:33:26.224Z,86.84
2018-04-24T04:34:26.411Z,87.03
2018-04-24T04:35:26.598Z,86.75
2018-04-24T04:36:26.784Z,86.55
2018-04-24T04:37:26.972Z,87.41
2018-04-24T04:38:27.161Z,87.41
2018-04-24T04:39:27.345Z,87.75
2018-04-24T04:40:27.533Z,88.32
2018-04-24T04:41:27.765Z,88.32
2018-04-24T04:42:27.905Z,88.42
2018-04-24T04:43:28.094Z,88.70
2018-04-24T04:44:28.282Z,88.51
2018-04-24T04:45:28.469Z,88.79
2018-04-24T04:46:28.653Z,88.42
2018-04-24T04:47:28.839Z,88.70
2018-04-24T04:48:29.026Z,88.60
2018-04-24T04:49:29.214Z,88.79
2018-04-24T04:50:29.399Z,87.85
2018-04-24T04:51:29.588Z,88.23
2018-04-24T04:52:29.776Z,87.94
2018-04-24T04:53:29.962Z,87.65
2018-04-24T04:54:30.150Z,87.37
2018-04-24T04:55:30.337Z,87.41
2018-04-24T04:56:30.522Z,87.03
2018-04-24T04:57:30.710Z,86.65
2018-04-24T04:58:30.898Z,86.84
2018-04-24T04:59:31.092Z,86.65
2018-04-24T05:00:31.273Z,86.46
2018-04-24T05:01:31.461Z,86.08
2018-04-24T05:02:31.648Z,85.89
2018-04-24T05:03:31.835Z,85.74
2018-04-24T05:04:32.025Z,85.46
2018-04-24T05:05:32.211Z,85.36
2018-04-24T05:06:32.399Z,85.17
2018-04-24T05:07:32.585Z,85.27
2018-04-24T05:08:32.774Z,84.79
2018-04-24T05:09:32.960Z,85.08
2018-04-24T05:10:33.149Z,84.79
2018-04-24T05:11:33.340Z,83.78
2018-04-24T05:12:33.524Z,83.88
2018-04-24T05:13:33.712Z,82.92
2018-04-24T05:14:33.900Z,82.17
2018-04-24T05:15:34.090Z,82.07
2018-04-24T05:16:34.277Z,81.88
2018-04-24T05:17:34.465Z,82.83
2018-04-24T05:18:34.653Z,82.64
2018-04-24T05:19:34.840Z,82.92
2018-04-24T05:20:35.027Z,82.45
2018-04-24T05:21:35.215Z,83.02
2018-04-24T05:22:35.403Z,82.50
2018-04-24T05:23:35.591Z,82.64
2018-04-24T05:24:35.779Z,82.54
2018-04-24T05:25:35.967Z,82.07
2018-04-24T05:26:36.159Z,81.30
2018-04-24T05:27:36.344Z,80.49
2018-04-24T05:28:36.531Z,80.39
2018-04-24T05:29:36.721Z,80.20
2018-04-24T05:30:36.909Z,80.11
2018-04-24T05:31:37.096Z,80.39
2018-04-24T05:32:37.281Z,80.20
2018-04-24T05:33:37.471Z,79.72
2018-04-24T05:34:37.662Z,79.15
2018-04-24T05:35:37.850Z,78.77
2018-04-24T05:36:38.040Z,79.25
2018-04-24T05:37:38.228Z,79.06
2018-04-24T05:38:38.416Z,78.96
2018-04-24T05:39:38.665Z,79.25
2018-04-24T05:40:38.793Z,79.63
2018-04-24T05:41:38.982Z,79.63
2018-04-24T05:42:39.172Z,79.53
2018-04-24T05:43:39.360Z,79.35
2018-04-24T05:44:39.553Z,77.95
2018-04-24T05:45:39.739Z,77.23
2018-04-24T05:46:39.928Z,76.18
2018-04-24T05:47:40.119Z,75.07
2018-04-24T05:48:40.307Z,73.58
2018-04-24T05:49:40.499Z,72.05
2018-04-24T05:50:40.687Z,70.65
2018-04-24T05:51:40.880Z,71.03
2018-04-24T05:52:41.071Z,70.36
2018-04-24T05:53:41.259Z,69.89
2018-04-24T05:54:41.456Z,69.98
2018-04-24T05:55:41.645Z,70.07
2018-04-24T05:56:41.842Z,70.42
2018-04-24T05:57:42.027Z,70.71
2018-04-24T05:58:42.219Z,70.36
2018-04-24T05:59:42.411Z,69.15
2018-04-24T06:00:42.607Z,68.29
2018-04-24T06:01:42.795Z,67.34
2018-04-24T06:02:42.989Z,67.24
2018-04-24T06:03:43.184Z,67.43
2018-04-24T06:04:43.381Z,66.41
2018-04-24T06:05:43.572Z,66.80
2018-04-24T06:06:43.762Z,66.22
2018-04-24T06:07:43.958Z,65.97
2018-04-24T06:08:44.147Z,65.11
2018-04-24T06:09:44.341Z,65.49
2018-04-24T06:10:44.535Z,66.22
2018-04-24T06:11:44.728Z,66.22
2018-04-24T06:12:44.923Z,65.97
2018-04-24T06:13:45.122Z,65.68
2018-04-24T06:14:45.314Z,65.01
2018-04-24T06:15:45.511Z,65.20
2018-04-24T06:16:45.708Z,65.30
2018-04-24T06:17:45.901Z,66.16
2018-04-24T06:18:46.096Z,65.39
2018-04-24T06:19:46.291Z,65.84
2018-04-24T06:20:46.489Z,66.80
2018-04-24T06:21:46.682Z,66.61
2018-04-24T06:22:46.880Z,66.32
2018-04-24T06:23:47.074Z,67.47
2018-04-24T06:24:47.273Z,67.24
2018-04-24T06:25:47.467Z,68.04
2018-04-24T06:26:47.665Z,67.18
2018-04-24T06:27:47.859Z,66.61
2018-04-24T06:28:48.059Z,66.61
2018-04-24T06:29:48.254Z,66.25
2018-04-24T06:30:48.453Z,65.39
2018-04-24T06:31:48.649Z,64.76
2018-04-24T06:32:48.846Z,63.99
2018-04-24T06:33:49.044Z,62.96
2018-04-24T06:34:49.242Z,62.39
2018-04-24T06:35:49.441Z,61.66
2018-04-24T06:36:49.639Z,61.46
2018-04-24T06:37:49.837Z,60.72
2018-04-24T06:38:50.040Z,59.03
2018-04-24T06:39:50.232Z,58.00
2018-04-24T06:40:50.431Z,58.00
2018-04-24T06:41:50.630Z,58.84
2018-04-24T06:42:50.828Z,59.19
2018-04-24T06:43:51.028Z,58.62
2018-04-24T06:44:51.227Z,59.00
2018-04-24T06:45:51.426Z,58.23
2018-04-24T06:46:51.626Z,59.09
2018-04-24T06:47:51.842Z,59.29
2018-04-24T06:48:52.028Z,60.15
2018-04-24T06:49:52.221Z,59.86
2018-04-24T06:50:52.420Z,59.58
2018-04-24T06:51:52.622Z,59.77
2018-04-24T06:52:52.817Z,61.27
2018-04-24T06:53:53.017Z,61.18
2018-04-24T06:54:53.216Z,60.53
2018-04-24T06:55:53.418Z,61.08
2018-04-24T06:56:53.613Z,60.50
2018-04-24T06:57:53.812Z,61.08
2018-04-24T06:58:54.011Z,62.59
2018-04-24T06:59:54.209Z,62.20
2018-04-24T07:00:54.454Z,62.30
2018-04-24T07:01:54.604Z,62.04
2018-04-24T07:02:54.800Z,62.17
2018-04-24T07:03:55.000Z,64.63
2018-04-24T07:04:55.195Z,65.42
2018-04-24T07:05:55.392Z,64.56
2018-04-24T07:06:55.589Z,63.92
2018-04-24T07:07:55.784Z,63.80
2018-04-24T07:08:55.982Z,66.35
2018-04-24T07:09:56.179Z,66.93
2018-04-24T07:10:56.374Z,66.99
2018-04-24T07:11:56.571Z,67.11
2018-04-24T07:12:56.768Z,66.19
2018-04-24T07:13:56.961Z,65.14
2018-04-24T07:14:57.156Z,64.89
2018-04-24T07:15:57.353Z,63.54
2018-04-24T07:16:57.593Z,63.64
2018-04-24T07:17:57.747Z,63.29
2018-04-24T07:18:57.942Z,63.00
2018-04-24T07:19:58.140Z,63.73
2018-04-24T07:20:58.336Z,64.56
2018-04-24T07:21:58.532Z,64.95
2018-04-24T07:22:58.731Z,64.95
2018-04-24T07:23:58.929Z,64.40
2018-04-24T07:24:59.125Z,64.89
2018-04-24T07:25:59.321Z,63.76
2018-04-24T07:26:59.516Z,63.09
2018-04-24T07:27:59.715Z,62.30
2018-04-24T07:28:59.911Z,62.68
2018-04-24T07:30:00.108Z,62.30
2018-04-24T07:31:00.305Z,61.18
2018-04-24T07:32:00.502Z,59.45
2018-04-24T07:33:00.727Z,58.11
2018-04-24T07:34:00.899Z,58.27
2018-04-24T07:35:01.095Z,57.89
2018-04-24T07:36:01.294Z,57.50
2018-04-24T07:37:01.492Z,57.89
2018-04-24T07:38:01.693Z,58.44
2018-04-24T07:39:01.887Z,57.98
2018-04-24T07:40:02.089Z,58.53
2018-04-24T07:41:02.289Z,60.06
2018-04-24T07:42:02.482Z,59.90
2018-04-24T07:43:02.679Z,58.46
2018-04-24T07:44:02.877Z,58.08
2018-04-24T07:45:03.076Z,58.11
2018-04-24T07:46:03.276Z,55.64
2018-04-24T07:47:03.474Z,56.02
2018-04-24T07:48:03.671Z,56.22
2018-04-24T07:49:03.874Z,55.86
2018-04-24T07:50:04.074Z,55.80
2018-04-24T07:51:04.272Z,57.21
2018-04-24T07:52:04.472Z,57.79
2018-04-24T07:53:04.668Z,57.60
2018-04-24T07:54:04.869Z,58.01
2018-04-24T07:55:05.071Z,56.89
2018-04-24T07:56:05.269Z,55.26
2018-04-24T07:57:05.470Z,54.21
2018-04-24T07:58:05.670Z,54.39
2018-04-24T07:59:05.871Z,56.38
2018-04-24T08:00:06.072Z,56.22
2018-04-24T08:01:06.271Z,55.35
2018-04-24T08:02:06.471Z,55.04
2018-04-24T08:03:06.669Z,56.48
2018-04-24T08:04:06.869Z,55.45
2018-04-24T08:05:07.073Z,55.23
2018-04-24T08:06:07.270Z,54.42
2018-04-24T08:07:07.471Z,53.20
2018-04-24T08:08:07.695Z,52.17
2018-04-24T08:09:07.871Z,51.47
2018-04-24T08:10:08.073Z,50.84
2018-04-24T08:11:08.278Z,52.28
2018-04-24T08:12:08.474Z,52.48
2018-04-24T08:13:08.675Z,53.60
2018-04-24T08:14:08.875Z,53.99
2018-04-24T08:15:09.075Z,54.56
2018-04-24T08:16:09.281Z,53.17
2018-04-24T08:17:09.476Z,51.21
2018-04-24T08:18:09.676Z,51.88
2018-04-24T08:19:09.876Z,51.50
2018-04-24T08:20:10.078Z,50.46
2018-04-24T08:21:10.279Z,48.69
2018-04-24T08:22:10.480Z,47.53
2018-04-24T08:23:10.680Z,48.40
2018-04-24T08:24:10.881Z,49.12
2018-04-24T08:25:11.085Z,49.89
2018-04-24T08:26:11.286Z,50.01
2018-04-24T08:27:11.485Z,49.53
2018-04-24T08:28:11.688Z,50.32
2018-04-24T08:29:11.888Z,49.91
2018-04-24T08:30:12.091Z,51.76
2018-04-24T08:31:12.292Z,51.47
2018-04-24T08:32:12.493Z,50.51
2018-04-24T08:33:12.697Z,49.77
2018-04-24T08:34:12.900Z,50.32
2018-04-24T08:35:13.099Z,49.48
2018-04-24T08:36:13.302Z,49.36
2018-04-24T08:37:13.505Z,50.39
2018-04-24T08:38:13.705Z,50.68
2018-04-24T08:39:13.907Z,49.96
2018-04-24T08:40:14.107Z,48.16
2018-04-24T08:41:14.312Z,47.27
2018-04-24T08:42:14.509Z,47.66
2018-04-24T08:43:14.710Z,47.30
2018-04-24T08:44:14.912Z,47.85
2018-04-24T08:45:15.114Z,47.58
2018-04-24T08:46:15.374Z,46.81
2018-04-24T08:47:15.517Z,46.91
2018-04-24T08:48:15.753Z,46.55
2018-04-24T08:49:15.923Z,46.16
2018-04-24T08:50:16.119Z,45.39
2018-04-24T08:51:16.320Z,45.01
2018-04-24T08:52:16.523Z,45.80
2018-04-24T08:53:16.721Z,46.77
2018-04-24T08:54:16.923Z,48.33
2018-04-24T08:55:17.127Z,47.30
2018-04-24T08:56:17.400Z,46.55
2018-04-24T08:57:17.527Z,45.51
2018-04-24T08:58:17.726Z,45.32
2018-04-24T08:59:17.933Z,45.61
2018-04-24T09:00:18.130Z,46.14
2018-04-24T09:01:18.331Z,47.10
2018-04-24T09:02:18.533Z,46.84
2018-04-24T09:03:18.732Z,46.84
2018-04-24T09:04:18.986Z,46.84
2018-04-24T09:05:19.133Z,46.33
2018-04-24T09:06:19.334Z,46.72
2018-04-24T09:07:19.535Z,46.72
2018-04-24T09:08:19.734Z,47.20
2018-04-24T09:09:19.933Z,46.55
2018-04-24T09:10:20.132Z,46.57
2018-04-24T09:11:20.333Z,45.63
2018-04-24T09:12:20.531Z,44.48
2018-04-24T09:13:20.742Z,44.40
2018-04-24T09:14:20.930Z,44.76
2018-04-24T09:15:21.129Z,44.09
2018-04-24T09:16:21.329Z,43.41
2018-04-24T09:17:21.527Z,42.84
2018-04-24T09:18:21.729Z,43.61
2018-04-24T09:19:21.929Z,44.43
2018-04-24T09:20:22.131Z,46.62
2018-04-24T09:21:22.325Z,46.55
2018-04-24T09:22:22.524Z,46.28
2018-04-24T09:23:22.722Z,46.74
2018-04-24T09:24:22.921Z,46.33
2018-04-24T09:25:23.120Z,47.68
2018-04-24T09:26:23.321Z,48.07
2018-04-24T09:27:23.518Z,47.51
2018-04-24T09:28:23.717Z,45.97
2018-04-24T09:29:23.916Z,45.80
2018-04-24T09:30:24.116Z,46.19
2018-04-24T09:31:24.313Z,44.96
2018-04-24T09:32:24.511Z,44.49
2018-04-24T09:33:24.740Z,44.28
2018-04-24T09:34:24.909Z,44.86
2018-04-24T09:35:25.108Z,44.28
2018-04-24T09:36:25.306Z,42.84
2018-04-24T09:37:25.508Z,43.11
2018-04-24T09:38:25.704Z,42.55
2018-04-24T09:39:25.908Z,42.91
2018-04-24T09:40:26.103Z,42.72
2018-04-24T09:41:26.301Z,42.74
2018-04-24T09:42:26.500Z,42.07
2018-04-24T09:43:26.698Z,40.14
2018-04-24T09:44:26.901Z,39.97
2018-04-24T09:45:27.096Z,39.59
2018-04-24T09:46:27.294Z,39.70
2018-04-24T09:47:27.494Z,39.22
2018-04-24T09:48:27.690Z,40.05
2018-04-24T09:49:27.934Z,42.89
2018-04-24T09:50:28.087Z,43.93
2018-04-24T09:51:28.287Z,44.89
2018-04-24T09:52:28.486Z,45.59
2018-04-24T09:53:28.685Z,45.29
2018-04-24T09:54:28.884Z,43.61
2018-04-24T09:55:29.083Z,41.68
2018-04-24T09:56:29.285Z,41.51
2018-04-24T09:57:29.479Z,41.88
2018-04-24T09:58:29.677Z,42.46
2018-04-24T09:59:29.879Z,42.07
2018-04-24T10:00:30.075Z,42.80
2018-04-24T10:01:30.272Z,44.00
2018-04-24T10:02:30.474Z,45.45
2018-04-24T10:03:30.674Z,46.43
2018-04-24T10:04:30.871Z,45.37
2018-04-24T10:05:31.067Z,44.99
2018-04-24T10:06:31.264Z,45.45
2018-04-24T10:07:31.462Z,46.86
2018-04-24T10:08:31.661Z,46.79
2018-04-24T10:09:31.859Z,47.10
2018-04-24T10:10:32.056Z,45.18
2018-04-24T10:11:32.255Z,46.31
2018-04-24T10:12:32.451Z,46.33
2018-04-24T10:13:32.745Z,46.23
2018-04-24T10:14:32.848Z,46.31
2018-04-24T10:15:33.045Z,46.81
2018-04-24T10:16:33.243Z,45.18
2018-04-24T10:17:33.442Z,44.82
2018-04-24T10:18:33.637Z,44.51
2018-04-24T10:19:33.833Z,44.22
2018-04-24T10:20:34.031Z,44.41
2018-04-24T10:21:34.228Z,43.76
2018-04-24T10:22:34.424Z,43.01
2018-04-24T10:23:34.621Z,42.72
2018-04-24T10:24:34.819Z,42.53
2018-04-24T10:25:35.016Z,42.14
2018-04-24T10:26:35.215Z,41.88
2018-04-24T10:27:35.410Z,41.49
2018-04-24T10:28:35.606Z,42.41
2018-04-24T10:29:35.804Z,44.22
2018-04-24T10:30:36.001Z,45.37
2018-04-24T10:31:36.199Z,45.54
2018-04-24T10:32:36.396Z,46.02
2018-04-24T10:33:36.597Z,45.95
2018-04-24T10:34:36.790Z,45.47
2018-04-24T10:35:36.985Z,44.65
2018-04-24T10:36:37.183Z,41.97
2018-04-24T10:37:37.380Z,40.34
2018-04-24T10:38:37.575Z,40.81
2018-04-24T10:39:37.774Z,40.61
2018-04-24T10:40:37.970Z,40.43
2018-04-24T10:41:38.165Z,40.41
2018-04-24T10:42:38.361Z,39.74
2018-04-24T10:43:38.560Z,39.37
2018-04-24T10:44:38.756Z,39.37
2018-04-24T10:45:38.952Z,40.80
2018-04-24T10:46:39.152Z,40.12
2018-04-24T10:47:39.349Z,38.41
2018-04-24T10:48:39.545Z,39.18
2018-04-24T10:49:39.742Z,38.31
2018-04-24T10:50:39.939Z,39.29
2018-04-24T10:51:40.150Z,40.30
2018-04-24T10:52:40.332Z,40.89
2018-04-24T10:53:40.529Z,40.61
2018-04-24T10:54:40.728Z,41.18
2018-04-24T10:55:40.925Z,41.66
2018-04-24T10:56:41.122Z,41.11
2018-04-24T10:57:41.317Z,39.49
2018-04-24T10:58:41.513Z,39.51
2018-04-24T10:59:41.711Z,37.89
2018-04-24T11:00:42.003Z,38.45
2018-04-24T11:01:42.104Z,39.24
2018-04-24T11:02:42.301Z,38.64
2018-04-24T11:03:42.499Z,38.66
2018-04-24T11:04:42.692Z,38.26
2018-04-24T11:05:42.889Z,39.03
2018-04-24T11:06:43.136Z,38.54
2018-04-24T11:07:43.283Z,39.01
2018-04-24T11:08:43.479Z,39.41
2018-04-24T11:09:43.677Z,38.93
2018-04-24T11:10:43.879Z,38.72
2018-04-24T11:11:44.068Z,38.45
2018-04-24T11:12:44.266Z,38.45
2018-04-24T11:13:44.465Z,38.33
2018-04-24T11:14:44.659Z,38.91
2018-04-24T11:15:44.855Z,39.68
2018-04-24T11:16:45.050Z,39.59
2018-04-24T11:17:45.247Z,40.36
2018-04-24T11:18:45.442Z,39.49
2018-04-24T11:19:45.638Z,38.72
2018-04-24T11:20:45.834Z,39.64
2018-04-24T11:21:46.034Z,40.99
2018-04-24T11:22:46.282Z,41.38
2018-04-24T11:23:46.420Z,42.63
2018-04-24T11:24:46.616Z,41.47
2018-04-24T11:25:46.812Z,41.18
2018-04-24T11:26:47.032Z,41.38
2018-04-24T11:27:47.205Z,41.20
2018-04-24T11:28:47.400Z,41.39
2018-04-24T11:29:47.597Z,40.53
2018-04-24T11:30:47.792Z,41.51
2018-04-24T11:31:47.990Z,40.07
2018-04-24T11:32:48.185Z,41.01
2018-04-24T11:33:48.381Z,40.36
2018-04-24T11:34:48.577Z,40.64
2018-04-24T11:35:48.773Z,40.53
2018-04-24T11:36:48.970Z,41.38
2018-04-24T11:37:49.165Z,40.63
2018-04-24T11:38:49.360Z,40.07
2018-04-24T11:39:49.559Z,40.34
2018-04-24T11:40:49.752Z,41.30
2018-04-24T11:41:49.949Z,41.47
2018-04-24T11:42:50.145Z,42.24
2018-04-24T11:43:50.361Z,40.14
2018-04-24T11:44:50.540Z,40.34
2018-04-24T11:45:50.731Z,39.95
2018-04-24T11:46:50.927Z,41.20
2018-04-24T11:47:51.120Z,40.89
2018-04-24T11:48:51.315Z,41.47
2018-04-24T11:49:51.510Z,42.24
2018-04-24T11:50:51.702Z,42.97
2018-04-24T11:51:51.899Z,44.22
2018-04-24T11:52:52.093Z,44.62
2018-04-24T11:53:52.288Z,43.57
2018-04-24T11:54:52.481Z,44.53
2018-04-24T11:55:52.676Z,44.53
2018-04-24T11:56:52.868Z,44.34
2018-04-24T11:57:53.062Z,44.34
2018-04-24T11:58:53.256Z,44.62
2018-04-24T11:59:53.449Z,44.45
2018-04-24T12:00:53.646Z,44.91
2018-04-24T12:01:53.841Z,45.20
2018-04-24T12:02:54.065Z,46.33
2018-04-24T12:03:54.226Z,46.81
2018-04-24T12:04:54.419Z,46.33
2018-04-24T12:05:54.614Z,47.46
2018-04-24T12:06:54.808Z,47.68
2018-04-24T12:07:55.003Z,46.91
2018-04-24T12:08:55.200Z,47.10
2018-04-24T12:09:55.390Z,47.20
2018-04-24T12:10:55.584Z,46.74
2018-04-24T12:11:55.778Z,46.93
2018-04-24T12:12:55.971Z,47.31
2018-04-24T12:13:56.164Z,47.87
2018-04-24T12:14:56.360Z,48.16
2018-04-24T12:15:56.554Z,47.22
2018-04-24T12:16:56.749Z,46.93
2018-04-24T12:17:56.941Z,47.00
2018-04-24T12:18:57.143Z,46.72
2018-04-24T12:19:57.332Z,46.36
2018-04-24T12:20:57.525Z,46.06
2018-04-24T12:21:57.716Z,46.45
2018-04-24T12:22:57.910Z,45.78
2018-04-24T12:23:58.106Z,46.43
2018-04-24T12:24:58.296Z,46.33
2018-04-24T12:25:58.490Z,45.59
2018-04-24T12:26:58.683Z,46.62
2018-04-24T12:27:58.876Z,46.45
2018-04-24T12:28:59.071Z,45.01
2018-04-24T12:29:59.262Z,44.74
2018-04-24T12:30:59.458Z,44.07
2018-04-24T12:31:59.652Z,44.43
2018-04-24T12:32:59.848Z,45.29
2018-04-24T12:34:00.041Z,45.28
2018-04-24T12:35:00.234Z,45.59
2018-04-24T12:36:00.428Z,44.34
2018-04-24T12:37:00.625Z,43.59
2018-04-24T12:38:00.822Z,42.84
2018-04-24T12:39:01.013Z,42.93
2018-04-24T12:40:01.201Z,42.82
2018-04-24T12:41:01.396Z,43.88
2018-04-24T12:42:01.598Z,43.99
2018-04-24T12:43:01.785Z,43.40
2018-04-24T12:44:01.977Z,44.35
2018-04-24T12:45:02.173Z,44.26
2018-04-24T12:46:02.366Z,44.17
2018-04-24T12:47:02.561Z,42.74
2018-04-24T12:48:02.753Z,44.35
2018-04-24T12:49:02.947Z,42.84
2018-04-24T12:50:03.143Z,42.67
2018-04-24T12:51:03.336Z,42.21
2018-04-24T12:52:03.529Z,41.63
2018-04-24T12:53:03.721Z,43.37
2018-04-24T12:54:03.920Z,41.94
2018-04-24T12:55:04.110Z,41.82